Time;durP1;ratioP1;P1;durP2;ratioP2;P2;SDS_P1;SDS_P2;PMS_P1;PMS_P2;Temp;Humidity;BMP_temperature;BMP_pressure;BME280_temperature;BME280_humidity;BME280_pressure;Samples;Min_cycle;Max_cycle;Signal;HPM_P1;HPM_P2
2022/06/24 00:01:23;;;;;;;9.20;6.13;;;21.90;99.90;;;;;;5073641;28;20551;-74
2022/06/24 00:03:49;;;;;;;10.77;6.50;;;21.80;99.90;;;;;;5073500;28;20024;-75
2022/06/24 00:06:16;;;;;;;10.18;6.30;;;21.80;99.90;;;;;;5073624;28;20025;-74
2022/06/24 00:08:56;;;;;;;12.48;6.80;;;21.80;99.90;;;;;;5073679;28;20051;-75
2022/06/24 00:11:23;;;;;;;10.65;6.75;;;21.70;99.90;;;;;;5073971;28;20557;-75
2022/06/24 00:13:49;;;;;;;10.38;7.00;;;21.70;99.90;;;;;;5073704;28;20415;-75
2022/06/24 00:16:14;;;;;;;8.85;6.00;;;21.60;99.90;;;;;;5073686;28;20029;-75
2022/06/24 00:18:40;;;;;;;12.27;6.47;;;21.60;99.90;;;;;;5073134;28;20032;-74
2022/06/24 00:21:13;;;;;;;10.45;6.35;;;21.60;99.90;;;;;;5073374;28;20547;-75
2022/06/24 00:23:42;;;;;;;11.73;7.13;;;21.50;99.90;;;;;;5055503;28;20481;-75
2022/06/24 00:26:08;;;;;;;10.30;6.15;;;21.50;99.90;;;;;;5073311;28;20017;-75
2022/06/24 00:28:34;;;;;;;10.23;7.72;;;21.40;99.90;;;;;;5055507;28;20027;-75
2022/06/24 00:31:02;;;;;;;11.90;7.15;;;21.40;99.90;;;;;;5055354;28;20016;-75
2022/06/24 00:33:33;;;;;;;18.60;7.03;;;21.30;99.90;;;;;;5073891;28;20017;-75
2022/06/24 00:35:59;;;;;;;10.10;7.20;;;21.30;99.90;;;;;;5073847;28;20033;-75
2022/06/24 00:38:32;;;;;;;10.20;7.28;;;21.30;99.90;;;;;;5073375;28;20038;-75
2022/06/24 00:41:05;;;;;;;12.30;7.85;;;21.30;99.90;;;;;;5073686;28;20485;-75
2022/06/24 00:43:34;;;;;;;12.23;7.47;;;21.30;99.90;;;;;;5073252;28;20024;-75
2022/06/24 00:46:06;;;;;;;11.32;7.35;;;21.30;99.90;;;;;;5073192;28;20017;-75
2022/06/24 00:48:38;;;;;;;14.63;7.88;;;21.30;99.90;;;;;;5074733;28;20550;-75
2022/06/24 00:51:04;;;;;;;10.77;7.93;;;21.30;99.90;;;;;;5077087;28;20024;-75
2022/06/24 00:53:38;;;;;;;12.93;7.78;;;21.20;99.90;;;;;;5077626;28;20025;-75
2022/06/24 00:56:04;;;;;;;13.68;7.00;;;21.30;99.90;;;;;;5077447;28;20020;-74
2022/06/24 00:58:33;;;;;;;12.32;8.43;;;21.30;99.90;;;;;;5077092;28;20031;-74
2022/06/24 01:00:59;;;;;;;11.30;6.78;;;21.30;99.90;;;;;;5076739;28;20058;-74
2022/06/24 01:03:40;;;;;;;15.23;8.10;;;21.30;99.90;;;;;;5076850;28;20473;-75
2022/06/24 01:06:06;;;;;;;8.77;7.03;;;21.20;99.90;;;;;;5076776;28;20024;-75
2022/06/24 01:08:32;;;;;;;9.40;6.57;;;21.20;99.90;;;;;;5076609;28;20020;-75
2022/06/24 01:10:58;;;;;;;15.38;7.82;;;21.20;99.90;;;;;;5112290;22;20178;-76
2022/06/24 01:13:23;;;;;;;17.27;8.05;;;21.10;99.90;;;;;;5096556;28;20020;-77
2022/06/24 01:15:49;;;;;;;16.65;7.35;;;21.10;99.90;;;;;;5096731;28;20472;-77
2022/06/24 01:18:15;;;;;;;13.25;7.53;;;21.10;99.90;;;;;;5095275;28;20385;-75
2022/06/24 01:20:41;;;;;;;13.52;7.15;;;21.10;99.90;;;;;;5096870;28;20052;-75
2022/06/24 01:23:06;;;;;;;10.68;6.38;;;21.50;99.90;;;;;;5078241;28;20519;-75
2022/06/24 01:25:32;;;;;;;11.18;6.28;;;21.00;99.90;;;;;;5096225;28;20082;-78
2022/06/24 01:27:59;;;;;;;11.10;4.63;;;20.90;99.90;;;;;;5096933;28;20138;-75
2022/06/24 01:30:25;;;;;;;6.80;3.90;;;20.90;99.90;;;;;;5078040;28;20064;-75
2022/06/24 01:32:51;;;;;;;5.95;3.13;;;20.60;99.90;;;;;;5098004;28;20039;-80
2022/06/24 01:35:17;;;;;;;5.85;3.60;;;20.50;99.90;;;;;;5098453;28;20024;-80
2022/06/24 01:37:42;;;;;;;8.30;2.28;;;20.30;99.90;;;;;;5079653;28;20024;-79
2022/06/24 01:40:09;;;;;;;5.85;1.45;;;20.60;99.90;;;;;;5080412;28;20085;-79
2022/06/24 01:42:34;;;;;;;3.22;0.47;;;19.80;99.90;;;;;;5080158;28;20031;-79
2022/06/24 01:45:00;;;;;;;4.03;0.38;;;20.10;99.90;;;;;;5088857;22;20044;-74
2022/06/24 01:47:26;;;;;;;1.25;0.00;;;19.30;99.90;;;;;;5075662;28;20028;-74
2022/06/24 01:49:51;;;;;;;0.70;0.00;;;20.60;99.90;;;;;;5075628;28;20063;-75
2022/06/24 01:52:17;;;;;;;3.10;0.10;;;20.30;99.90;;;;;;5075980;28;20025;-75
2022/06/24 01:54:43;;;;;;;4.20;0.20;;;18.70;99.90;;;;;;5074505;28;20115;-75
2022/06/24 01:57:08;;;;;;;6.40;0.52;;;18.50;99.90;;;;;;5075504;28;20025;-73
2022/06/24 01:59:34;;;;;;;3.45;0.35;;;18.30;99.90;;;;;;5075924;28;20027;-75
2022/06/24 02:01:59;;;;;;;1.52;0.28;;;18.30;99.90;;;;;;5075766;28;20022;-76
2022/06/24 02:04:25;;;;;;;3.13;0.28;;;18.20;99.90;;;;;;5075569;28;20028;-77
2022/06/24 02:06:51;;;;;;;2.75;0.10;;;18.20;99.90;;;;;;5075808;28;20013;-77
2022/06/24 02:09:16;;;;;;;1.08;0.10;;;18.10;99.90;;;;;;5075344;28;20477;-76
2022/06/24 02:14:27;;;;;;;3.45;0.60;;;18.10;99.90;;;;;;5075639;28;20058;-76
2022/06/24 02:16:53;;;;;;;4.32;0.47;;;18.10;99.90;;;;;;5075120;28;20028;-76
2022/06/24 02:19:20;;;;;;;2.60;0.10;;;18.10;99.90;;;;;;5074005;28;20027;-77
2022/06/24 02:21:46;;;;;;;2.28;0.50;;;18.10;99.90;;;;;;5075144;28;20028;-77
2022/06/24 02:24:13;;;;;;;2.38;0.45;;;18.10;99.90;;;;;;5074861;28;20097;-76
2022/06/24 02:26:43;;;;;;;1.13;0.15;;;18.10;99.90;;;;;;5074764;28;20035;-76
2022/06/24 02:29:10;;;;;;;1.70;0.10;;;18.10;99.90;;;;;;5073540;28;20027;-76
2022/06/24 02:31:37;;;;;;;1.48;0.45;;;18.10;99.90;;;;;;5074864;28;20012;-76
2022/06/24 02:34:03;;;;;;;3.28;0.32;;;18.10;99.90;;;;;;5075712;28;20080;-73
2022/06/24 02:36:28;;;;;;;1.20;0.20;;;18.10;99.90;;;;;;5073409;28;20055;-73
2022/06/24 02:38:54;;;;;;;1.05;0.10;;;18.10;99.90;;;;;;5073450;28;20524;-72
2022/06/24 02:41:20;;;;;;;2.58;0.40;;;18.20;99.90;;;;;;5073354;28;20074;-73
2022/06/24 02:43:45;;;;;;;3.17;0.40;;;18.20;99.90;;;;;;5074758;28;20059;-74
2022/06/24 02:46:17;;;;;;;1.05;0.47;;;18.20;99.90;;;;;;5074577;28;20021;-74
2022/06/24 02:48:43;;;;;;;2.05;0.40;;;18.20;99.90;;;;;;5074490;28;20023;-74
2022/06/24 02:51:11;;;;;;;10.10;0.40;;;18.20;99.90;;;;;;5074402;28;20013;-73
2022/06/24 02:53:37;;;;;;;2.25;0.68;;;18.20;99.90;;;;;;5074386;28;20021;-73
2022/06/24 02:56:05;;;;;;;1.42;0.70;;;18.30;99.90;;;;;;5074684;28;20355;-74
2022/06/24 02:58:32;;;;;;;3.17;0.88;;;18.30;99.90;;;;;;5075236;28;20032;-73
2022/06/24 03:00:58;;;;;;;1.52;1.05;;;18.30;99.90;;;;;;5074126;28;20032;-73
2022/06/24 03:03:24;;;;;;;3.20;1.13;;;18.30;99.90;;;;;;5074032;28;20020;-74
2022/06/24 03:05:51;;;;;;;4.22;1.48;;;18.30;99.90;;;;;;5074467;28;20099;-74
2022/06/24 03:08:19;;;;;;;8.10;1.90;;;18.30;99.90;;;;;;5074032;28;20100;-74
2022/06/24 03:10:45;;;;;;;4.70;1.20;;;18.30;99.90;;;;;;5073458;28;20035;-74
2022/06/24 03:13:11;;;;;;;2.33;0.82;;;18.30;99.90;;;;;;5074187;28;20025;-73
2022/06/24 03:15:38;;;;;;;3.83;0.80;;;18.30;99.90;;;;;;5072588;28;20131;-74
2022/06/24 03:18:04;;;;;;;0.65;0.38;;;18.30;99.90;;;;;;5074104;28;20028;-75
2022/06/24 03:20:31;;;;;;;3.72;0.57;;;18.30;99.90;;;;;;5074245;28;20559;-74
2022/06/24 03:22:56;;;;;;;4.97;0.80;;;18.30;99.90;;;;;;5073994;28;20028;-74
2022/06/24 03:25:22;;;;;;;6.22;0.47;;;18.30;99.90;;;;;;5073645;28;20027;-74
2022/06/24 03:27:48;;;;;;;4.53;1.33;;;18.30;99.90;;;;;;5073931;28;20469;-74
2022/06/24 03:30:14;;;;;;;2.95;0.47;;;18.30;99.90;;;;;;5074035;28;20059;-74
2022/06/24 03:32:39;;;;;;;2.72;0.40;;;18.30;99.90;;;;;;5073713;28;20055;-75
2022/06/24 03:35:06;;;;;;;2.60;0.80;;;18.30;99.90;;;;;;5072423;28;20469;-74
2022/06/24 03:37:33;;;;;;;1.60;0.40;;;18.30;99.90;;;;;;5073538;28;20077;-74
2022/06/24 03:39:59;;;;;;;2.63;0.30;;;18.30;99.90;;;;;;5073579;28;20024;-74
2022/06/24 03:42:25;;;;;;;7.13;1.35;;;18.30;99.90;;;;;;5072334;28;20020;-73
2022/06/24 03:44:51;;;;;;;0.90;0.38;;;18.30;99.90;;;;;;5072121;28;20028;-74
2022/06/24 03:47:16;;;;;;;2.47;0.40;;;18.30;99.90;;;;;;5072138;28;20028;-73
2022/06/24 03:49:42;;;;;;;2.92;0.90;;;18.30;99.90;;;;;;5073696;28;20044;-74
2022/06/24 03:52:08;;;;;;;1.13;0.15;;;18.20;99.90;;;;;;5073624;28;20104;-74
2022/06/24 03:54:35;;;;;;;2.42;0.25;;;18.20;99.90;;;;;;5072064;28;20031;-74
2022/06/24 03:57:01;;;;;;;2.33;0.70;;;18.10;99.90;;;;;;5073303;28;20096;-73
2022/06/24 03:59:27;;;;;;;4.65;0.32;;;18.10;99.90;;;;;;5072071;28;20370;-74
2022/06/24 04:01:52;;;;;;;3.22;0.10;;;18.20;99.90;;;;;;5073578;28;20032;-74
2022/06/24 04:04:18;;;;;;;3.55;0.10;;;18.10;99.90;;;;;;5071952;28;20025;-73
2022/06/24 04:06:44;;;;;;;2.17;0.10;;;18.10;99.90;;;;;;5073299;28;20465;-73
2022/06/24 04:09:09;;;;;;;3.92;0.73;;;18.10;99.90;;;;;;5073271;28;20029;-73
2022/06/24 04:11:35;;;;;;;2.70;0.15;;;18.00;99.90;;;;;;5072242;28;20096;-76
2022/06/24 04:14:01;;;;;;;1.17;0.30;;;18.00;99.90;;;;;;5072207;28;20025;-76
2022/06/24 04:16:27;;;;;;;2.30;0.32;;;18.00;99.90;;;;;;5073563;28;20017;-76
2022/06/24 04:18:53;;;;;;;2.90;0.17;;;18.00;99.90;;;;;;5071926;28;20021;-76
2022/06/24 04:21:19;;;;;;;0.73;0.20;;;17.90;99.90;;;;;;5073730;28;20150;-75
2022/06/24 04:23:45;;;;;;;0.85;0.43;;;18.00;99.90;;;;;;5076574;28;20024;-76
2022/06/24 04:26:12;;;;;;;1.23;0.40;;;18.00;99.90;;;;;;5077635;28;20027;-75
2022/06/24 04:28:39;;;;;;;3.85;0.20;;;18.00;99.90;;;;;;5077699;28;20165;-76
2022/06/24 04:31:05;;;;;;;1.00;0.10;;;18.00;99.90;;;;;;5077531;28;20082;-77
2022/06/24 04:33:30;;;;;;;2.65;0.20;;;18.00;99.90;;;;;;5077331;28;20028;-76
2022/06/24 04:35:56;;;;;;;1.73;0.20;;;18.00;99.90;;;;;;5077038;28;20393;-76
2022/06/24 04:38:22;;;;;;;1.00;0.22;;;18.00;99.90;;;;;;5059127;28;20036;-77
2022/06/24 04:40:48;;;;;;;1.10;0.10;;;18.00;99.90;;;;;;5076801;28;20024;-77
2022/06/24 04:43:14;;;;;;;1.35;0.20;;;18.00;99.90;;;;;;5076815;28;20108;-76
2022/06/24 04:45:40;;;;;;;0.40;0.20;;;18.00;99.90;;;;;;5076854;28;20053;-76
2022/06/24 04:48:06;;;;;;;2.88;0.22;;;18.00;99.90;;;;;;5075580;28;20056;-76
2022/06/24 04:50:32;;;;;;;1.42;0.30;;;18.10;99.90;;;;;;5077050;28;20412;-74
2022/06/24 04:52:58;;;;;;;1.70;0.32;;;18.10;99.90;;;;;;5075338;28;20080;-75
2022/06/24 04:55:24;;;;;;;0.77;0.30;;;18.10;99.90;;;;;;5077005;28;20032;-75
2022/06/24 04:57:49;;;;;;;4.40;0.20;;;18.10;99.90;;;;;;5076572;28;20024;-75
2022/06/24 05:00:16;;;;;;;2.28;0.22;;;18.10;99.90;;;;;;5075403;28;20027;-77
2022/06/24 05:02:42;;;;;;;1.75;0.22;;;18.10;99.90;;;;;;5075218;28;20032;-76
2022/06/24 05:05:09;;;;;;;0.98;0.20;;;18.10;99.90;;;;;;5076429;28;20024;-77
2022/06/24 05:07:35;;;;;;;1.65;0.40;;;18.20;99.90;;;;;;5075137;28;20035;-76
2022/06/24 05:10:01;;;;;;;7.03;0.20;;;18.20;99.90;;;;;;5075182;28;20024;-77
2022/06/24 05:12:26;;;;;;;2.60;0.32;;;18.20;99.90;;;;;;5076746;28;20099;-76
2022/06/24 05:14:52;;;;;;;2.90;0.40;;;18.30;99.90;;;;;;5075301;28;20024;-75
2022/06/24 05:17:18;;;;;;;1.00;0.45;;;18.30;99.90;;;;;;5076246;28;20025;-76
2022/06/24 05:19:43;;;;;;;2.47;0.40;;;18.40;99.90;;;;;;5076274;28;20058;-76
2022/06/24 05:22:09;;;;;;;2.88;0.35;;;18.40;99.90;;;;;;5074827;28;20362;-77
2022/06/24 05:24:35;;;;;;;0.77;0.38;;;18.50;99.90;;;;;;5076257;28;20034;-76
2022/06/24 05:27:00;;;;;;;2.75;0.43;;;18.60;99.90;;;;;;5076618;28;20078;-77
2022/06/24 05:29:26;;;;;;;1.08;0.50;;;18.60;99.90;;;;;;5074810;28;20036;-76
2022/06/24 05:31:51;;;;;;;1.48;0.40;;;18.70;99.90;;;;;;5076290;28;20108;-76
2022/06/24 05:34:17;;;;;;;2.22;0.40;;;18.80;99.90;;;;;;5075269;28;20090;-77
2022/06/24 05:36:43;;;;;;;1.17;0.65;;;18.80;99.90;;;;;;5074873;28;20070;-76
2022/06/24 05:39:09;;;;;;;5.68;0.50;;;19.00;99.90;;;;;;5075822;28;20032;-75
2022/06/24 05:41:39;;;;;;;0.93;0.38;;;19.10;99.90;;;;;;5074487;28;20074;-75
2022/06/24 05:44:05;;;;;;;2.03;0.60;;;19.10;99.90;;;;;;5075531;28;20485;-75
2022/06/24 05:46:31;;;;;;;1.00;0.40;;;19.10;99.90;;;;;;5074718;28;20020;-75
2022/06/24 05:48:56;;;;;;;1.90;0.60;;;19.10;99.90;;;;;;5075810;28;20047;-76
2022/06/24 05:51:22;;;;;;;1.80;0.82;;;19.10;99.90;;;;;;5075945;28;20044;-74
2022/06/24 05:56:32;;;;;;;1.27;0.40;;;19.00;99.90;;;;;;5076235;28;20036;-76
2022/06/24 05:58:59;;;;;;;4.20;0.60;;;19.00;99.90;;;;;;5075479;28;20028;-76
2022/06/24 06:01:25;;;;;;;3.70;1.02;;;19.00;99.90;;;;;;5074226;28;20473;-76
2022/06/24 06:03:51;;;;;;;4.22;1.25;;;19.00;99.90;;;;;;5073866;28;20021;-75
2022/06/24 06:06:17;;;;;;;1.80;0.70;;;19.00;99.90;;;;;;5075460;28;20078;-76
2022/06/24 06:08:43;;;;;;;2.95;0.63;;;19.40;99.90;;;;;;5073872;28;20020;-75
2022/06/24 06:11:18;;;;;;;3.35;0.70;;;19.10;99.90;;;;;;5075271;28;20025;-75
2022/06/24 06:13:45;;;;;;;2.60;1.08;;;19.10;99.90;;;;;;5075783;28;20368;-76
2022/06/24 06:16:11;;;;;;;3.08;0.82;;;19.10;99.90;;;;;;5075406;28;20037;-76
2022/06/24 06:18:38;;;;;;;3.97;1.13;;;19.10;99.90;;;;;;5075049;28;20075;-76
2022/06/24 06:21:06;;;;;;;2.83;1.33;;;19.10;99.90;;;;;;5074918;28;20028;-77
2022/06/24 06:23:32;;;;;;;3.63;1.08;;;19.10;99.90;;;;;;5075480;28;20035;-76
2022/06/24 06:25:59;;;;;;;2.75;1.50;;;19.10;99.90;;;;;;5075221;28;20017;-77
2022/06/24 06:28:25;;;;;;;5.35;1.83;;;19.20;99.90;;;;;;5074850;28;20044;-76
2022/06/24 06:30:50;;;;;;;2.67;1.30;;;19.30;99.90;;;;;;5074972;28;20021;-76
2022/06/24 06:33:16;;;;;;;2.40;1.52;;;19.40;99.90;;;;;;5074687;28;20025;-76
2022/06/24 06:35:42;;;;;;;5.13;2.00;;;19.50;99.90;;;;;;5073566;28;20025;-75
2022/06/24 06:38:08;;;;;;;4.03;2.35;;;19.60;99.90;;;;;;5074800;28;20044;-76
2022/06/24 06:40:34;;;;;;;3.85;2.25;;;19.70;99.90;;;;;;5074687;28;20032;-77
2022/06/24 06:43:01;;;;;;;4.18;2.15;;;19.80;99.90;;;;;;5074489;28;20035;-77
2022/06/24 06:45:27;;;;;;;5.40;2.30;;;19.90;99.90;;;;;;5073971;28;20074;-76
2022/06/24 06:47:53;;;;;;;4.00;1.65;;;19.90;99.90;;;;;;5074711;28;20509;-75
2022/06/24 06:50:18;;;;;;;4.60;2.40;;;20.00;99.90;;;;;;5074524;28;20111;-76
2022/06/24 06:52:44;;;;;;;2.03;1.52;;;20.10;99.90;;;;;;5073239;28;20020;-76
2022/06/24 06:55:10;;;;;;;3.20;1.95;;;20.10;99.90;;;;;;5074280;28;20055;-74
2022/06/24 06:57:36;;;;;;;2.13;1.73;;;20.20;99.90;;;;;;5072954;28;20035;-76
2022/06/24 07:00:06;;;;;;;3.75;1.63;;;20.30;99.90;;;;;;5074287;28;20103;-78
2022/06/24 07:02:32;;;;;;;5.90;2.20;;;20.40;99.90;;;;;;5074208;28;20012;-75
2022/06/24 07:04:57;;;;;;;4.75;2.20;;;20.40;99.90;;;;;;5074637;28;20021;-75
2022/06/24 07:07:23;;;;;;;8.75;2.10;;;20.40;99.90;;;;;;5072945;28;20021;-75
2022/06/24 07:09:51;;;;;;;5.80;2.38;;;20.50;99.90;;;;;;5072920;28;20020;-75
2022/06/24 07:12:17;;;;;;;;;;;20.40;99.90;;;;;;5073248;28;20013;-75
2022/06/24 07:14:43;;;;;;;6.57;3.33;;;20.40;99.90;;;;;;5074465;28;19904;-76
2022/06/24 07:17:10;;;;;;;5.95;3.40;;;20.40;99.90;;;;;;5072942;28;20611;-75
2022/06/24 07:19:36;;;;;;;6.25;2.80;;;20.40;99.90;;;;;;5074894;28;20036;-77
2022/06/24 07:22:03;;;;;;;3.45;2.40;;;20.30;99.90;;;;;;5075351;28;20025;-77
2022/06/24 07:24:28;;;;;;;6.45;3.78;;;20.30;99.90;;;;;;5073709;28;20378;-76
2022/06/24 07:26:54;;;;;;;6.15;2.80;;;20.30;99.90;;;;;;5075582;28;20027;-78
2022/06/24 07:29:20;;;;;;;6.13;3.42;;;20.20;99.90;;;;;;5074413;28;20044;-76
2022/06/24 07:31:47;;;;;;;4.43;3.33;;;20.20;99.90;;;;;;5074168;28;20020;-75
2022/06/24 07:34:14;;;;;;;8.82;3.30;;;20.20;99.90;;;;;;5072767;28;20119;-75
2022/06/24 07:36:40;;;;;;;5.30;3.40;;;20.10;99.90;;;;;;5072290;28;20063;-77
2022/06/24 07:39:05;;;;;;;12.63;3.22;;;20.20;99.90;;;;;;5074797;28;20025;-77
2022/06/24 07:41:31;;;;;;;5.70;3.78;;;20.10;99.90;;;;;;5073879;28;20029;-77
2022/06/24 07:43:57;;;;;;;7.15;3.65;;;20.20;99.90;;;;;;5075400;28;20031;-75
2022/06/24 07:46:23;;;;;;;9.88;4.05;;;20.20;99.90;;;;;;5073403;28;20445;-76
2022/06/24 07:48:54;;;;;;;5.28;3.58;;;20.10;99.90;;;;;;5074231;28;20033;-77
2022/06/24 07:51:24;;;;;;;9.05;4.50;;;20.20;99.90;;;;;;5074986;28;20043;-77
2022/06/24 07:53:50;;;;;;;6.32;4.43;;;20.20;99.90;;;;;;5072556;28;20123;-76
2022/06/24 07:59:00;;;;;;;7.57;5.20;;;20.30;99.90;;;;;;5073418;28;20501;-75
2022/06/24 08:01:26;;;;;;;7.65;4.93;;;20.40;99.90;;;;;;5073411;28;20021;-75
2022/06/24 08:03:51;;;;;;;7.47;5.05;;;20.40;99.90;;;;;;5073645;28;20127;-75
2022/06/24 08:06:17;;;;;;;8.73;4.93;;;20.30;99.90;;;;;;5073461;28;20031;-75
2022/06/24 08:08:43;;;;;;;6.95;5.15;;;20.30;99.90;;;;;;5073331;28;20527;-74
2022/06/24 08:11:08;;;;;;;7.70;5.20;;;20.20;99.90;;;;;;5073490;28;20052;-75
2022/06/24 08:13:34;;;;;;;8.38;5.57;;;20.20;99.90;;;;;;5073693;28;20104;-78
2022/06/24 08:16:00;;;;;;;9.98;5.88;;;20.30;99.90;;;;;;5073263;28;20565;-77
2022/06/24 08:18:26;;;;;;;11.82;6.00;;;20.30;99.90;;;;;;5073430;28;20028;-76
2022/06/24 08:20:53;;;;;;;9.20;6.68;;;20.50;99.90;;;;;;5073427;28;20024;-76
2022/06/24 08:23:19;;;;;;;10.05;6.20;;;20.60;99.90;;;;;;5073175;28;20032;-77
2022/06/24 08:25:44;;;;;;;10.02;6.63;;;20.70;99.90;;;;;;5071846;28;20378;-77
2022/06/24 08:28:10;;;;;;;9.65;6.40;;;20.80;99.90;;;;;;5073476;28;20074;-74
2022/06/24 08:30:36;;;;;;;10.10;6.20;;;20.90;99.90;;;;;;5073213;28;20064;-75
2022/06/24 08:33:02;;;;;;;9.68;6.03;;;21.00;99.90;;;;;;5073103;28;20024;-74
2022/06/24 08:35:28;;;;;;;7.72;5.85;;;21.00;99.90;;;;;;5073801;28;20028;-78
2022/06/24 08:37:56;;;;;;;11.65;6.88;;;21.00;99.90;;;;;;5073231;28;20051;-76
2022/06/24 08:40:24;;;;;;;14.65;7.07;;;21.20;99.90;;;;;;5073491;28;20024;-76
2022/06/24 08:42:52;;;;;;;10.20;6.85;;;21.20;99.90;;;;;;5074276;28;20029;-74
2022/06/24 08:45:18;;;;;;;8.70;6.00;;;21.40;99.90;;;;;;5071668;28;20032;-73
2022/06/24 08:47:47;;;;;;;10.52;6.70;;;21.50;99.90;;;;;;5072781;28;20021;-73
2022/06/24 08:50:13;;;;;;;14.50;5.97;;;21.60;99.90;;;;;;5071375;28;20116;-73
2022/06/24 08:52:48;;;;;;;8.32;5.47;;;21.50;99.90;;;;;;5072863;28;20092;-73
2022/06/24 08:55:18;;;;;;;9.68;5.03;;;21.40;99.90;;;;;;5072751;28;20024;-74
2022/06/24 08:57:45;;;;;;;8.73;4.70;;;21.40;99.90;;;;;;5071266;28;20029;-73
2022/06/24 09:00:11;;;;;;;10.13;5.25;;;21.40;99.90;;;;;;5073175;28;20033;-75
2022/06/24 09:02:37;;;;;;;8.20;5.40;;;21.40;99.90;;;;;;5072365;28;20024;-73
2022/06/24 09:05:10;;;;;;;6.07;4.85;;;21.30;99.90;;;;;;5071437;28;20378;-74
2022/06/24 09:07:36;;;;;;;6.97;4.95;;;21.40;99.90;;;;;;5072630;28;20029;-74
2022/06/24 09:10:10;;;;;;;8.40;4.45;;;21.40;99.90;;;;;;5074869;28;20020;-74
2022/06/24 09:12:44;;;;;;;6.68;5.28;;;21.50;99.90;;;;;;5074519;28;20025;-74
2022/06/24 09:15:11;;;;;;;6.10;3.58;;;21.50;99.90;;;;;;5076132;28;20025;-74
2022/06/24 09:17:38;;;;;;;3.72;3.20;;;21.70;99.90;;;;;;5074794;28;20508;-73
2022/06/24 09:20:11;;;;;;;4.18;2.80;;;21.70;99.90;;;;;;5074852;28;20040;-75
2022/06/24 09:22:37;;;;;;;4.53;3.13;;;21.80;99.90;;;;;;5074045;28;20033;-75
2022/06/24 09:25:03;;;;;;;6.45;3.70;;;21.80;99.90;;;;;;5075831;28;20028;-73
2022/06/24 09:27:29;;;;;;;5.35;3.42;;;21.90;99.90;;;;;;5075960;28;20478;-76
2022/06/24 09:29:55;;;;;;;7.35;4.85;;;22.00;99.90;;;;;;5075905;28;20020;-76
2022/06/24 09:32:21;;;;;;;6.85;4.13;;;22.10;99.90;;;;;;5074596;28;20486;-74
2022/06/24 09:35:02;;;;;;;7.63;4.20;;;22.10;99.90;;;;;;5075883;28;20035;-76
2022/06/24 09:37:44;;;;;;;7.22;4.47;;;22.20;99.90;;;;;;5075866;28;20453;-76
2022/06/24 09:40:24;;;;;;;7.85;3.97;;;22.40;99.90;;;;;;5075637;28;20115;-76
2022/06/24 09:43:04;;;;;;;5.60;3.72;;;22.60;99.90;;;;;;5076179;28;20060;-76
2022/06/24 09:45:43;;;;;;;5.65;4.22;;;22.70;99.90;;;;;;5074306;28;20074;-76
2022/06/24 09:48:12;;;;;;;5.95;3.58;;;22.80;99.90;;;;;;5074239;28;20021;-74
2022/06/24 09:50:39;;;;;;;5.82;4.03;;;22.70;99.90;;;;;;5076122;28;20021;-74
2022/06/24 09:53:07;;;;;;;4.97;3.00;;;22.70;99.90;;;;;;5075494;28;20032;-75
2022/06/24 09:55:33;;;;;;;5.57;2.97;;;22.70;99.90;;;;;;5075369;28;20025;-75
2022/06/24 09:57:59;;;;;;;5.35;3.28;;;23.00;99.90;;;;;;5074095;28;20486;-76
2022/06/24 10:00:41;;;;;;;4.53;3.10;;;23.00;99.90;;;;;;5075555;28;20111;-75
2022/06/24 10:03:10;;;;;;;4.25;3.55;;;23.00;99.90;;;;;;5075865;28;20067;-75
2022/06/24 10:05:47;;;;;;;4.57;2.97;;;23.00;99.90;;;;;;5075534;28;20020;-75
2022/06/24 10:08:16;;;;;;;5.47;3.73;;;22.90;99.90;;;;;;5074028;28;20082;-75
2022/06/24 10:10:49;;;;;;;5.90;3.20;;;23.10;99.90;;;;;;5073819;28;20479;-74
2022/06/24 10:13:26;;;;;;;5.65;4.47;;;23.20;99.90;;;;;;5075163;28;20025;-75
2022/06/24 10:15:53;;;;;;;7.10;3.83;;;23.30;99.90;;;;;;5073935;28;20058;-73
2022/06/24 10:18:22;;;;;;;7.00;4.50;;;23.40;99.90;;;;;;5073664;28;20048;-74
2022/06/24 10:20:50;;;;;;;6.47;4.68;;;23.70;99.90;;;;;;5074201;28;20378;-75
2022/06/24 10:23:34;;;;;;;8.10;4.60;;;23.80;99.90;;;;;;5075621;28;20500;-76
2022/06/24 10:26:12;;;;;;;9.40;5.18;;;23.90;99.90;;;;;;5076064;28;20054;-77
2022/06/24 10:28:59;;;;;;;9.20;5.40;;;23.90;99.90;;;;;;5075651;28;20027;-76
2022/06/24 10:31:59;;;;;;;10.82;5.13;;;24.00;99.90;;;;;;5073478;28;20078;-75
2022/06/24 10:34:30;;;;;;;9.35;4.28;;;24.10;99.90;;;;;;5073705;28;20107;-74
2022/06/24 10:37:08;;;;;;;7.45;4.32;;;24.20;99.90;;;;;;5075355;28;20107;-73
2022/06/24 10:40:02;;;;;;;9.10;4.88;;;24.50;99.90;;;;;;5075027;28;20036;-74
2022/06/24 10:42:30;;;;;;;9.13;5.75;;;24.50;99.90;;;;;;5074523;28;20106;-74
2022/06/24 10:45:17;;;;;;;9.18;5.05;;;24.60;99.90;;;;;;5074486;28;20047;-73
2022/06/24 10:47:43;;;;;;;8.55;5.00;;;24.60;99.90;;;;;;5074413;28;20024;-74
2022/06/24 10:50:14;;;;;;;8.35;5.75;;;24.50;99.90;;;;;;5074499;28;20389;-74
2022/06/24 10:52:56;;;;;;;11.43;4.97;;;24.40;99.90;;;;;;5072928;28;20033;-75
2022/06/24 10:55:30;;;;;;;10.30;6.45;;;24.20;99.90;;;;;;5074410;28;20059;-75
2022/06/24 10:58:14;;;;;;;10.80;5.97;;;24.00;99.90;;;;;;5074424;28;20112;-74
2022/06/24 11:00:50;;;;;;;13.48;7.40;;;23.60;99.90;;;;;;5074203;28;20024;-74
2022/06/24 11:03:26;;;;;;;14.35;8.18;;;23.30;99.90;;;;;;5074177;28;20472;-75
2022/06/24 11:05:52;;;;;;;11.68;6.35;;;23.30;99.90;;;;;;5074320;28;20473;-73
2022/06/24 11:08:23;;;;;;;7.18;4.10;;;23.40;99.90;;;;;;5074331;28;20013;-74
2022/06/24 11:10:50;;;;;;;8.70;4.65;;;23.80;99.90;;;;;;5074658;28;20092;-73
2022/06/24 11:13:18;;;;;;;4.65;3.60;;;24.30;99.90;;;;;;5072746;28;20110;-73
2022/06/24 11:16:00;;;;;;;5.63;3.92;;;24.70;99.90;;;;;;5074083;28;20043;-74
2022/06/24 11:18:31;;;;;;;6.10;3.40;;;25.30;99.90;;;;;;5073985;28;20108;-74
2022/06/24 11:21:07;;;;;;;9.15;4.28;;;25.70;99.90;;;;;;5074228;28;20438;-73
2022/06/24 11:23:35;;;;;;;6.50;4.00;;;25.80;99.90;;;;;;5073807;28;20035;-73
2022/06/24 11:26:01;;;;;;;4.07;2.80;;;25.90;99.90;;;;;;5073739;28;20074;-74
2022/06/24 11:28:35;;;;;;;4.13;2.50;;;25.50;99.90;;;;;;5073961;28;20492;-74
2022/06/24 11:31:25;;;;;;;3.55;1.90;;;25.10;99.90;;;;;;5072660;28;20067;-74
2022/06/24 11:34:12;;;;;;;3.83;1.45;;;24.80;99.90;;;;;;5067760;28;20037;-74
2022/06/24 11:36:41;;;;;;;5.95;2.80;;;24.50;99.90;;;;;;5072054;28;20053;-74
2022/06/24 11:39:09;;;;;;;5.00;2.80;;;24.20;99.90;;;;;;5072836;28;20054;-77
2022/06/24 11:41:40;;;;;;;4.15;3.15;;;24.10;99.90;;;;;;5074456;28;20021;-76
2022/06/24 11:44:08;;;;;;;4.93;3.00;;;23.90;99.90;;;;;;5073359;28;20024;-76
2022/06/24 11:46:33;;;;;;;5.40;2.80;;;23.70;99.90;;;;;;5073485;28;20024;-76
2022/06/24 11:49:05;;;;;;;4.95;2.83;;;23.70;99.90;;;;;;5074038;28;20488;-76
2022/06/24 11:51:31;;;;;;;5.90;3.47;;;23.30;99.90;;;;;;5073362;28;20034;-76
2022/06/24 11:53:58;;;;;;;5.70;3.78;;;23.10;99.90;;;;;;5073292;28;20381;-76
2022/06/24 11:56:27;;;;;;;8.20;4.57;;;22.90;99.90;;;;;;5073379;28;20362;-76
2022/06/24 11:58:53;;;;;;;13.05;6.95;;;22.70;99.90;;;;;;5072409;28;20032;-76
2022/06/24 12:01:19;;;;;;;14.93;7.40;;;22.40;99.90;;;;;;5074145;28;20089;-76
2022/06/24 12:03:46;;;;;;;13.73;7.05;;;22.30;99.90;;;;;;5073611;28;20028;-77
2022/06/24 12:06:12;;;;;;;10.43;7.55;;;22.10;99.90;;;;;;5073239;28;20021;-77
2022/06/24 12:08:38;;;;;;;9.18;4.78;;;22.10;99.90;;;;;;5073006;28;20019;-76
2022/06/24 12:11:16;;;;;;;8.15;4.13;;;22.10;99.90;;;;;;5073185;28;20044;-77
2022/06/24 12:13:54;;;;;;;10.48;5.20;;;22.10;99.90;;;;;;5073308;28;20021;-77
2022/06/24 12:16:19;;;;;;;29.27;8.43;;;22.30;99.90;;;;;;5071947;28;20035;-76
2022/06/24 12:18:45;;;;;;;11.48;7.40;;;22.60;99.90;;;;;;5073170;28;20384;-75
2022/06/24 12:21:10;;;;;;;16.52;7.88;;;22.80;99.90;;;;;;5073167;28;20040;-76
2022/06/24 12:23:38;;;;;;;11.00;7.60;;;23.10;99.90;;;;;;5072915;28;20482;-76
2022/06/24 12:26:12;;;;;;;25.90;9.75;;;23.40;99.90;;;;;;5072998;28;20074;-76
2022/06/24 12:28:37;;;;;;;16.73;8.05;;;23.60;99.90;;;;;;5073507;28;20044;-76
2022/06/24 12:31:08;;;;;;;12.35;7.53;;;23.70;99.90;;;;;;5073637;28;20025;-77
2022/06/24 12:33:47;;;;;;;15.48;7.25;;;24.00;99.90;;;;;;5073089;28;20028;-76
2022/06/24 12:36:15;;;;;;;10.57;6.97;;;23.60;99.90;;;;;;5073285;28;20508;-77
2022/06/24 12:38:58;;;;;;;11.25;7.32;;;23.50;99.90;;;;;;5072836;28;20033;-76
2022/06/24 12:41:24;;;;;;;21.15;7.13;;;23.40;99.90;;;;;;5061378;28;20076;-76
2022/06/24 12:43:57;;;;;;;9.70;6.22;;;23.30;99.90;;;;;;5052640;28;20028;-76
2022/06/24 12:52:35;;;;;;;10.23;4.85;;;23.80;99.90;;;;;;5057122;28;20397;-76
2022/06/24 12:55:03;;;;;;;7.80;4.43;;;24.40;99.90;;;;;;5056742;28;20032;-76
2022/06/24 12:57:29;;;;;;;6.57;5.35;;;24.70;99.90;;;;;;5057244;28;20110;-76
2022/06/24 12:59:54;;;;;;;6.45;4.40;;;25.20;99.90;;;;;;5055391;28;20056;-76
2022/06/24 13:02:20;;;;;;;7.75;4.65;;;25.70;99.90;;;;;;5056516;28;20036;-75
2022/06/24 13:04:46;;;;;;;10.52;5.78;;;26.10;99.90;;;;;;5055108;28;20025;-76